Yorkville, Ohio
Current Conditions -  °F | °C
As of 10:53 AM on Friday 21 Nov 2014 (Local Time) from KHLG Reporting Station
Broken Clouds Broken Clouds  
Wind Chill: 14°   Ceiling: 3200
Heat Index: 25°   Visibility: 10mi
Dew Point:   Wind: 12mph
Humidity: 51%   Direction: 310°NW
Pressure: 30.45"   Gusts: NA
Location:  40.15°N, 80.71°W
Report Text: KHLG 211553Z 31010KT 10SM BKN032 M04/M13 A3045 RMK AO2 SLP333 T10391128
Loading
Personal Weather Stations






























Interactive Weather Map New forecast layout! Learn more

10-Day Weather Forecast

Advertisements
Track Severe Weather on mobile